RU-0425 weather

CLOSED Kislovodsk Airport
Kislovodsk, Stavropol Krai, Russia

Public forecast

Using degrees Celsius for public forecast. Weather courtesy of forecast.io.

Closest aviation weather report (METAR) to Kislovodsk Airport

Closest report is Mineralnyye Vody Airport, 25.7 nm (47.6 km) NE. Retrieved 2020/08/04 13:30 UTC (6 minutes ago):

URMM 041330Z 06003MPS 9999 NSC 28/06 Q1013 R12/090070 NOSIG RMK QFE731/0975

Closest aviation forecast (TAF) to Kislovodsk Airport

Closest forecast is Mineralnyye Vody Airport, 25.7 nm (47.6 km) NE. Retrieved 2020/08/04 12:24 UTC (1 hour ago):

TAF URMM 041100Z 0412/0512 11003G08MPS 9999 NSC TX28/0412Z TN16/0502Z TEMPO 0412/0415 07003G08MPS TEMPO 0415/0422 VRB01MPS BECMG 0422/0424 29003G08MPS TEMPO 0500/0505 VRB01MPS BECMG 0505/0506 33003G08MPS